Etusivu
METAR-TAF:

METAR-TAF

Lentoasemat :

Tampere-Pirkkalan lentoasema

Tampere, Suomi

Leveyspiiri: 61-25N, Pituuspiiri: 023-35E, korkeus merenpinnasta: 112 m

Tämänhetkinen sää

Tämä raportti tehtiin 20 minuuttia sitten, kello 17.20 UTC
Tuuli 7 kn lounaasta
Lämpötila 19°C
Kosteus 37%
Ilmanpaine 1024 hPa
Näkyvyys 10 km tai enemmän
ei pilviä alle 1500 m:ssä eikä cumulonimbus-pilviä

METAR: EFTP 201720Z AUTO 22007KT CAVOK 19/04 Q1024

Aika: 20:40 (17:40 UTC)

Sääennuste

Tämä raportti tehtiin 3 tuntia ja 15 minuuttia sitten, kello 14.25 UTC
Ennuste voimassa 20. päivästä klo 15 UTC - 21. päivään klo 15 UTC
Tuuli 8 kn lounaasta
Näkyvyys 10 km tai enemmän
ei pilviä alle 1500 m:ssä eikä cumulonimbus-pilviä

TAF: EFTP 201425Z 2015/2115 22008KT CAVOK

Säähavainnot ja -ennusteet yli 4000 lentoasemalta (METAR- ja TAF-raportit).

Käytössä olevat sääasemat on merkitty karttaan keltaisilla ja punaisilla pisteillä.

Aseta hiiri pisteen päälle nähdäksesi sääaseman nimen.

Klikkaa sitten nähdäksesi säähavainnot ja -ennusteet.

Kartan vaihtaminen: klikkaa mustalla rastilla varustettuja vihreitä pisteitä, niin voit zoomata sisään; viivalla varustettua vihreää pistettä, niin voit zoomata ulos tai vihreitä nuolia, niin pääset viereisille kartoille.


METAR-TAF: